Terminal Aerodrome Forecast
Issued by NWS Cleveland, OH

Home | Current Version | Previous Version | Graphics & Text | Print | Product List | Glossary Off
Versions: 1 2 3 4 5 6 7 8 9 10 11 12 13 14 15 16 17 18 19 20

000
FTUS41 KCLE 271304 AAA
TAFCAK
TAF AMD
KCAK 271304Z 2713/2812 24008KT P6SM SCT025 OVC045
      TEMPO 2714/2715 BKN025
     FM280000 VRB03KT P6SM OVC100
     FM280500 10005KT 5SM -RA BR OVC012
     FM280700 05005KT 3SM -RA BR OVC007=

USA.gov is the U.S. government's official web portal to all federal, state and local government web resources and services.